Terminal Aerodrome Forecast
Issued by NWS

Home | Current Version | Previous Version | Text Only | Print | Product List | Glossary On
Versions: 1 2 3 4 5 6 7 8 9 10 11 12
241
FTUS46 KPDT 301740
TAFALW
TAF
KALW 301740Z 3018/0118 24018G26KT P6SM SCT045 SCT250
     FM010200 20012KT P6SM BKN060
     FM010900 18009KT P6SM BKN050
     FM011500 20008KT P6SM SCT040 BKN130 BKN150=

USA.gov is the U.S. government's official web portal to all federal, state and local government web resources and services.